Time;durP1;ratioP1;P1;durP2;ratioP2;P2;SDS_P1;SDS_P2;PMS_P1;PMS_P2;Temp;Humidity;BMP_temperature;BMP_pressure;BME280_temperature;BME280_humidity;BME280_pressure;Samples;Min_cycle;Max_cycle;Signal;HPM_P1;HPM_P2
2023/04/20 00:01:09;;;;;;;6.20;2.23;;;;;;;-145.18;100.00;47527.78;5040693;28;20286;-68
2023/04/20 00:03:36;;;;;;;3.50;1.83;;;;;;;-145.18;100.00;47537.53;5042545;28;20124;-68
2023/04/20 00:06:02;;;;;;;7.27;1.80;;;;;;;-145.18;100.00;47535.59;5037177;28;20517;-68
2023/04/20 00:08:27;;;;;;;5.83;1.97;;;;;;;-145.18;100.00;47535.59;5039972;28;20789;-68
2023/04/20 00:10:53;;;;;;;5.20;2.60;;;;;;;-145.18;100.00;47551.22;5039839;28;20112;-68
2023/04/20 00:13:18;;;;;;;6.80;2.40;;;;;;;-145.18;100.00;47541.44;5040366;28;20120;-67
2023/04/20 00:15:44;;;;;;;4.30;2.20;;;;;;;-145.18;100.00;47535.59;5039111;28;20449;-68
2023/04/20 00:18:09;;;;;;;4.03;2.07;;;;;;;-145.18;100.00;47553.16;5044054;28;20039;-68
2023/04/20 00:20:35;;;;;;;3.70;2.23;;;;;;;-145.18;100.00;47551.22;5041028;28;20047;-68
2023/04/20 00:23:01;;;;;;;8.07;1.87;;;;;;;-145.18;100.00;47533.63;5037011;28;20038;-68
2023/04/20 00:25:26;;;;;;;3.97;2.00;;;;;;;-145.18;100.00;47537.53;5037870;28;20452;-68
2023/04/20 00:27:52;;;;;;;4.10;2.00;;;;;;;-145.18;100.00;47529.72;5043340;28;20037;-68
2023/04/20 00:30:17;;;;;;;3.13;1.80;;;;;;;-145.18;100.00;47545.34;5044844;28;20552;-67
2023/04/20 00:32:43;;;;;;;9.90;2.40;;;;;;;-145.18;100.00;47564.91;5040373;28;20103;-68
2023/04/20 00:35:08;;;;;;;5.13;1.93;;;;;;;-145.18;100.00;47555.13;5044798;28;20036;-68
2023/04/20 00:37:34;;;;;;;2.70;1.87;;;;;;;-145.18;100.00;47545.34;5039158;28;20107;-68
2023/04/20 00:39:59;;;;;;;4.77;1.97;;;;;;;-145.18;100.00;47539.50;5037997;28;20036;-68
2023/04/20 00:42:25;;;;;;;4.83;2.30;;;;;;;-145.18;100.00;47553.16;5037828;28;20048;-68
2023/04/20 00:44:50;;;;;;;2.80;1.70;;;;;;;-145.18;100.00;47547.31;5041076;28;20417;-68
2023/04/20 00:47:15;;;;;;;5.83;2.03;;;;;;;-145.18;100.00;47545.34;5040110;28;20036;-68
2023/04/20 00:49:41;;;;;;;6.47;2.20;;;;;;;-145.18;100.00;47543.41;5039180;28;20156;-68
2023/04/20 00:52:07;;;;;;;4.87;1.83;;;;;;;-145.18;100.00;47523.88;5039413;28;20565;-68
2023/04/20 00:54:34;;;;;;;3.43;2.07;;;;;;;-145.18;100.00;47533.63;5042024;28;20041;-68
2023/04/20 00:57:01;;;;;;;4.13;2.03;;;;;;;-145.18;100.00;47547.31;5037038;28;20771;-68
2023/04/20 00:59:26;;;;;;;6.67;2.63;;;;;;;-145.18;100.00;47562.94;5039605;28;20297;-68
2023/04/20 01:01:52;;;;;;;7.43;1.80;;;;;;;-145.18;100.00;47551.22;5039117;28;20774;-68
2023/04/20 01:04:17;;;;;;;3.87;2.00;;;;;;;-145.18;100.00;47555.13;5043575;28;20036;-67
2023/04/20 01:06:43;;;;;;;4.70;2.13;;;;;;;-145.18;100.00;47564.91;5041502;28;20536;-68
2023/04/20 01:09:09;;;;;;;10.87;2.40;;;;;;;-145.18;100.00;47553.16;5042289;28;20053;-68
2023/04/20 01:11:34;;;;;;;7.13;2.07;;;;;;;-145.18;100.00;47557.06;5038585;28;20470;-68
2023/04/20 01:14:00;;;;;;;2.70;1.73;;;;;;;-145.18;100.00;47568.81;5036382;28;20064;-68
2023/04/20 01:16:26;;;;;;;4.33;1.97;;;;;;;-145.18;100.00;47564.91;5039148;28;20488;-68
2023/04/20 01:18:52;;;;;;;4.43;2.10;;;;;;;-145.18;100.00;47570.75;5037573;28;20417;-68
2023/04/20 01:21:21;;;;;;;4.90;1.97;;;;;;;-145.18;100.00;47553.16;5040882;28;20293;-68
2023/04/20 01:23:46;;;;;;;5.03;2.07;;;;;;;-145.18;100.00;47568.81;5038067;28;20128;-68
2023/04/20 01:26:14;;;;;;;5.37;1.70;;;;;;;-145.18;100.00;47570.75;5036474;28;20275;-68
2023/04/20 01:28:39;;;;;;;6.67;1.93;;;;;;;-145.18;100.00;47545.34;5038489;28;20037;-68
2023/04/20 01:31:07;;;;;;;3.63;1.70;;;;;;;-145.18;100.00;47561.00;5037385;28;20288;-68
2023/04/20 01:33:33;;;;;;;4.97;1.97;;;;;;;-145.18;100.00;47562.94;5042730;28;20033;-67
2023/04/20 01:35:58;;;;;;;4.70;2.50;;;;;;;-145.18;100.00;47564.91;5041264;28;20409;-68
2023/04/20 01:38:25;;;;;;;7.20;2.03;;;;;;;-145.18;100.00;47562.94;5040749;28;20725;-68
2023/04/20 01:40:50;;;;;;;3.70;1.90;;;;;;;-145.18;100.00;47574.66;5036718;28;20037;-67
2023/04/20 01:43:17;;;;;;;3.67;2.00;;;;;;;-145.18;100.00;47559.03;5035689;28;20793;-68
2023/04/20 01:45:42;;;;;;;4.23;1.90;;;;;;;-145.18;100.00;47564.91;5036126;28;20611;-68
2023/04/20 01:48:08;;;;;;;5.43;2.10;;;;;;;-145.18;100.00;47562.94;5037010;28;20281;-68
2023/04/20 01:50:33;;;;;;;3.87;2.03;;;;;;;-145.18;100.00;47570.75;5038272;28;20037;-68
2023/04/20 01:52:59;;;;;;;4.17;2.17;;;;;;;-145.18;100.00;47555.13;5037877;28;20053;-68
2023/04/20 01:55:25;;;;;;;8.73;2.30;;;;;;;-145.18;100.00;47555.13;5036836;28;20124;-68
2023/04/20 01:57:50;;;;;;;4.77;1.90;;;;;;;-145.18;100.00;47561.00;5039036;28;20399;-68
2023/04/20 02:02:58;;;;;;;5.93;2.13;;;;;;;-145.18;100.00;47566.84;5281442;22;20510;-66
2023/04/20 02:05:24;;;;;;;7.57;2.40;;;;;;;-145.18;100.00;47566.84;4951020;28;20299;-66
2023/04/20 02:07:50;;;;;;;4.10;2.47;;;;;;;-145.18;100.00;47582.47;4959484;28;20034;-66
2023/04/20 02:10:15;;;;;;;3.07;1.83;;;;;;;-145.18;100.00;47564.91;4958796;28;20036;-66
2023/04/20 02:12:41;;;;;;;4.07;2.17;;;;;;;-145.18;100.00;47553.16;4956925;28;20045;-66
2023/04/20 02:15:08;;;;;;;4.10;1.53;;;;;;;-145.18;100.00;47559.03;4965405;28;20042;-66
2023/04/20 02:17:35;;;;;;;6.30;2.30;;;;;;;-145.18;100.00;47537.53;4963853;28;20070;-67
2023/04/20 02:20:03;;;;;;;6.90;2.20;;;;;;;-145.18;100.00;47553.16;4963263;28;20389;-66
2023/04/20 02:22:28;;;;;;;7.83;2.17;;;;;;;-145.18;100.00;47561.00;4962001;28;20749;-66
2023/04/20 02:24:53;;;;;;;3.17;2.17;;;;;;;-145.18;100.00;47564.91;4964501;28;20299;-66
2023/04/20 02:27:19;;;;;;;3.77;1.97;;;;;;;-145.18;100.00;47559.03;4960989;28;20514;-66
2023/04/20 02:29:44;;;;;;;6.27;2.20;;;;;;;-145.18;100.00;47562.94;4964095;28;20053;-66
2023/04/20 02:32:10;;;;;;;5.03;2.23;;;;;;;-145.18;100.00;47559.03;4965725;28;20140;-66
2023/04/20 02:34:35;;;;;;;9.57;2.67;;;;;;;-145.18;100.00;47555.13;4965491;28;20039;-66
2023/04/20 02:37:00;;;;;;;7.33;1.97;;;;;;;-145.18;100.00;47553.16;4962967;28;20058;-66
2023/04/20 02:39:26;;;;;;;6.00;2.60;;;;;;;-145.18;100.00;47561.00;4967728;28;20122;-66
2023/04/20 02:41:51;;;;;;;9.40;2.50;;;;;;;-145.18;100.00;47566.84;4965469;28;20043;-66
2023/04/20 02:44:16;;;;;;;6.43;2.70;;;;;;;-145.18;100.00;47568.81;4963818;28;20039;-66
2023/04/20 02:46:42;;;;;;;4.10;2.10;;;;;;;-145.18;100.00;47562.94;4968592;28;20101;-67
2023/04/20 02:49:07;;;;;;;4.57;2.60;;;;;;;-145.18;100.00;47564.91;4962027;28;20126;-67
2023/04/20 02:51:32;;;;;;;4.43;2.43;;;;;;;-145.18;100.00;47561.00;4965558;28;20074;-66
2023/04/20 02:53:58;;;;;;;5.90;2.23;;;;;;;-145.18;100.00;47570.75;4965234;28;20488;-66
2023/04/20 02:56:23;;;;;;;6.20;2.50;;;;;;;-145.18;100.00;47555.13;4963839;28;20037;-66
2023/04/20 02:58:50;;;;;;;4.30;2.27;;;;;;;-145.18;100.00;47549.25;4965351;28;20514;-66
2023/04/20 03:01:16;;;;;;;5.57;2.50;;;;;;;-145.18;100.00;47551.22;4964447;28;20027;-66
2023/04/20 03:03:41;;;;;;;5.60;2.43;;;;;;;-145.18;100.00;47531.69;4959492;28;20388;-66
2023/04/20 03:06:07;;;;;;;6.23;2.57;;;;;;;-145.18;100.00;47555.13;4961722;28;20091;-66
2023/04/20 03:08:32;;;;;;;5.93;2.40;;;;;;;-145.18;100.00;47547.31;4965904;28;20039;-66
2023/04/20 03:10:58;;;;;;;4.43;2.67;;;;;;;-145.18;100.00;47557.06;4960923;28;20047;-66
2023/04/20 03:13:23;;;;;;;5.30;2.30;;;;;;;-145.18;100.00;47547.31;4961401;28;20133;-66
2023/04/20 03:15:49;;;;;;;8.70;2.70;;;;;;;-145.18;100.00;47562.94;4963854;28;20170;-67
2023/04/20 03:18:14;;;;;;;11.40;3.20;;;;;;;-145.18;100.00;47566.84;4965534;28;20049;-66
2023/04/20 03:20:40;;;;;;;3.77;2.40;;;;;;;-145.18;100.00;47566.84;4963635;28;20043;-66
2023/04/20 03:23:05;;;;;;;4.33;2.23;;;;;;;-145.18;100.00;47559.03;4946756;28;20041;-66
2023/04/20 03:25:31;;;;;;;5.47;2.63;;;;;;;-145.18;100.00;47557.06;4963594;28;20391;-66
2023/04/20 03:27:56;;;;;;;5.53;2.70;;;;;;;-145.18;100.00;47564.91;4967104;28;20121;-66
2023/04/20 03:30:22;;;;;;;5.27;3.00;;;;;;;-145.18;100.00;47559.03;4965994;28;20027;-66
2023/04/20 03:32:47;;;;;;;12.53;2.73;;;;;;;-145.18;100.00;47582.47;4960981;28;20059;-66
2023/04/20 03:35:13;;;;;;;4.00;2.53;;;;;;;-145.18;100.00;47549.25;4964507;28;20126;-66
2023/04/20 03:37:38;;;;;;;7.13;2.67;;;;;;;-145.18;100.00;47539.50;4944576;28;20047;-66
2023/04/20 03:40:06;;;;;;;5.40;2.53;;;;;;;-145.18;100.00;47547.31;4966113;28;20554;-66
2023/04/20 03:42:31;;;;;;;3.73;2.23;;;;;;;-145.18;100.00;47516.06;4961846;28;20054;-66
2023/04/20 03:44:56;;;;;;;8.27;2.50;;;;;;;-145.18;100.00;47541.44;4960876;28;20280;-66
2023/04/20 03:47:22;;;;;;;5.37;2.70;;;;;;;-145.18;100.00;47512.16;4964124;28;20141;-67
2023/04/20 03:49:47;;;;;;;8.80;2.40;;;;;;;-145.18;100.00;47545.34;4962086;28;20073;-66
2023/04/20 03:52:13;;;;;;;5.00;2.20;;;;;;;-145.18;100.00;47519.97;4958148;28;20062;-66
2023/04/20 03:54:38;;;;;;;6.23;2.60;;;;;;;-145.18;100.00;47533.63;4964376;28;20031;-66
2023/04/20 03:57:03;;;;;;;4.70;2.10;;;;;;;-145.18;100.00;47535.59;4961494;28;20443;-66
2023/04/20 03:59:29;;;;;;;8.20;2.53;;;;;;;-145.18;100.00;47516.06;4959244;28;20039;-67
2023/04/20 04:01:55;;;;;;;5.23;2.63;;;;;;;-145.18;100.00;47519.97;4961368;28;20047;-66
2023/04/20 04:04:21;;;;;;;5.60;2.57;;;;;;;-145.18;100.00;47529.72;4960346;28;20043;-66
2023/04/20 04:06:46;;;;;;;5.10;2.33;;;;;;;-145.18;100.00;47508.22;4963919;28;20777;-66
2023/04/20 04:09:11;;;;;;;5.97;2.30;;;;;;;-145.18;100.00;47529.72;4963316;28;20047;-66
2023/04/20 04:11:37;;;;;;;4.70;2.50;;;;;;;-145.18;100.00;47508.22;4960243;28;20111;-66
2023/04/20 04:14:04;;;;;;;5.63;2.50;;;;;;;-145.18;100.00;47525.81;4963578;28;20082;-66
2023/04/20 04:16:32;;;;;;;4.87;2.30;;;;;;;-145.18;100.00;47504.31;4961431;28;20082;-66
2023/04/20 04:18:58;;;;;;;6.43;2.80;;;;;;;-145.18;100.00;47514.09;4955128;28;20292;-66
2023/04/20 04:21:23;;;;;;;8.53;2.40;;;;;;;-145.18;100.00;47504.31;4961280;28;20293;-66
2023/04/20 04:23:49;;;;;;;4.40;2.43;;;;;;;-145.18;100.00;47518.00;4964904;28;20070;-66
2023/04/20 04:26:16;;;;;;;6.80;2.37;;;;;;;-145.18;100.00;47514.09;4960771;28;20086;-66
2023/04/20 04:28:44;;;;;;;5.13;2.33;;;;;;;-145.18;100.00;47527.78;4963788;28;20288;-66
2023/04/20 04:31:10;;;;;;;3.87;2.60;;;;;;;-145.18;100.00;47510.19;4962103;28;20280;-66
2023/04/20 04:33:35;;;;;;;7.53;2.77;;;;;;;-145.18;100.00;47500.41;4964475;28;20293;-66
2023/04/20 04:36:01;;;;;;;7.73;2.37;;;;;;;-145.18;100.00;47502.38;4962270;28;20131;-67
2023/04/20 04:38:26;;;;;;;6.67;2.77;;;;;;;-145.18;100.00;47508.22;4962319;28;20472;-66
2023/04/20 04:40:52;;;;;;;6.80;2.53;;;;;;;-145.18;100.00;47518.00;4960565;28;20154;-67
2023/04/20 04:43:18;;;;;;;8.03;2.60;;;;;;;-145.18;100.00;47514.09;4962386;28;20122;-66
2023/04/20 04:45:44;;;;;;;6.40;2.10;;;;;;;-145.18;100.00;47508.22;4959582;28;20369;-66
2023/04/20 04:48:11;;;;;;;5.33;2.50;;;;;;;-145.18;100.00;47525.81;4962036;28;20046;-66
2023/04/20 04:50:37;;;;;;;4.60;2.37;;;;;;;-145.18;100.00;47521.91;4961564;28;20335;-66
2023/04/20 04:53:03;;;;;;;5.50;2.40;;;;;;;-145.18;100.00;47529.72;4957942;28;20399;-66
2023/04/20 04:55:28;;;;;;;4.90;2.13;;;;;;;-145.18;100.00;47508.22;4950814;28;20356;-66
2023/04/20 04:57:53;;;;;;;3.87;2.17;;;;;;;-145.18;100.00;47521.91;4959551;28;20035;-66
2023/04/20 05:00:19;;;;;;;4.27;2.13;;;;;;;-145.18;100.00;47518.00;4964506;28;20062;-66
2023/04/20 05:02:44;;;;;;;7.00;2.40;;;;;;;-145.18;100.00;47508.22;4970712;28;20062;-66
2023/04/20 05:05:10;;;;;;;7.43;2.30;;;;;;;-145.18;100.00;47512.16;4972254;28;20497;-66
2023/04/20 05:07:37;;;;;;;3.80;2.00;;;;;;;-145.18;100.00;47525.81;4971383;28;20062;-66
2023/04/20 05:10:02;;;;;;;4.03;2.07;;;;;;;-145.18;100.00;47512.16;4972086;28;20084;-66
2023/04/20 05:12:28;;;;;;;4.97;2.23;;;;;;;-145.18;100.00;47496.50;4972217;28;20813;-66
2023/04/20 05:14:53;;;;;;;6.20;1.93;;;;;;;-145.18;100.00;47506.28;4971614;28;20046;-66
2023/04/20 05:17:19;;;;;;;10.87;2.50;;;;;;;-145.18;100.00;47510.19;4971897;28;20491;-66
2023/04/20 05:19:44;;;;;;;6.13;2.30;;;;;;;-145.18;100.00;47508.22;4971658;28;20034;-66
2023/04/20 05:22:09;;;;;;;3.87;2.03;;;;;;;-145.18;100.00;47519.97;4971890;28;20407;-66
2023/04/20 05:24:35;;;;;;;4.80;2.13;;;;;;;-145.18;100.00;47521.91;4986690;28;20054;-66
2023/04/20 05:27:00;;;;;;;5.47;2.13;;;;;;;-145.18;100.00;47521.91;4971613;28;20039;-66
2023/04/20 05:29:26;;;;;;;5.00;2.70;;;;;;;-145.18;100.00;47531.69;4971670;28;20043;-66
2023/04/20 05:31:51;;;;;;;7.27;2.33;;;;;;;-145.18;100.00;47521.91;4971693;28;20034;-66
2023/04/20 05:34:16;;;;;;;4.43;2.10;;;;;;;-145.18;100.00;47510.19;4955340;28;20043;-66
2023/04/20 05:36:42;;;;;;;5.60;2.13;;;;;;;-145.18;100.00;47519.97;4954905;28;20040;-66
2023/04/20 05:39:07;;;;;;;5.33;2.77;;;;;;;-145.18;100.00;47496.50;4952185;29;20035;-66
2023/04/20 05:41:33;;;;;;;5.67;2.30;;;;;;;-145.18;100.00;47516.06;4952610;29;20126;-66
2023/04/20 05:43:58;;;;;;;4.90;2.10;;;;;;;-145.18;100.00;47504.31;4952191;28;20041;-66
2023/04/20 05:46:24;;;;;;;4.27;2.30;;;;;;;-145.18;100.00;47506.28;4921514;29;20067;-66
2023/04/20 05:48:49;;;;;;;4.67;2.27;;;;;;;-145.18;100.00;47500.41;4934803;29;20098;-66
2023/04/20 05:51:15;;;;;;;7.00;2.27;;;;;;;-145.18;100.00;47508.22;4952221;29;20124;-66
2023/04/20 05:53:40;;;;;;;5.63;2.03;;;;;;;-145.18;100.00;47482.84;4951209;29;20044;-66
2023/04/20 05:56:06;;;;;;;4.10;1.70;;;;;;;-145.18;100.00;47510.19;4951968;29;20462;-66
2023/04/20 05:58:33;;;;;;;4.47;1.90;;;;;;;-145.18;100.00;47496.50;4951900;29;20432;-66
2023/04/20 06:00:58;;;;;;;4.13;2.10;;;;;;;-145.18;100.00;47508.22;4952126;29;20313;-66
2023/04/20 06:03:24;;;;;;;4.07;2.00;;;;;;;-145.18;100.00;47510.19;4951733;29;20371;-66
2023/04/20 06:05:50;;;;;;;7.60;2.10;;;;;;;-145.18;100.00;47516.06;4952351;29;20039;-66
2023/04/20 06:08:16;;;;;;;6.77;2.60;;;;;;;-145.18;100.00;47496.50;4951524;29;20031;-66
2023/04/20 06:10:41;;;;;;;9.60;2.30;;;;;;;-145.18;100.00;47480.88;4952381;29;20348;-66
2023/04/20 06:13:07;;;;;;;5.87;2.20;;;;;;;-145.18;100.00;47498.47;4951292;28;20388;-66
2023/04/20 06:15:32;;;;;;;5.50;2.03;;;;;;;-145.18;100.00;47504.31;4952310;29;20484;-66
2023/04/20 06:17:57;;;;;;;4.20;2.27;;;;;;;-145.18;100.00;47494.56;4951791;29;20376;-67
2023/04/20 06:20:23;;;;;;;6.93;2.47;;;;;;;-145.18;100.00;47508.22;4951904;29;20071;-66
2023/04/20 06:22:48;;;;;;;5.07;2.67;;;;;;;-145.18;100.00;47494.56;4951835;29;20035;-66
2023/04/20 06:25:14;;;;;;;6.43;2.00;;;;;;;-145.18;100.00;47484.78;4951847;29;20130;-66
2023/04/20 06:27:40;;;;;;;4.93;2.27;;;;;;;-145.18;100.00;47486.75;4934763;29;20114;-66
2023/04/20 06:30:06;;;;;;;3.73;2.40;;;;;;;-145.18;100.00;47482.84;4951598;29;20032;-66
2023/04/20 06:32:32;;;;;;;8.67;2.27;;;;;;;-145.18;100.00;47492.59;4951914;29;20352;-66
2023/04/20 06:34:57;;;;;;;7.83;2.30;;;;;;;-145.18;100.00;47488.69;4951698;29;20289;-66
2023/04/20 06:37:22;;;;;;;5.20;2.07;;;;;;;-145.18;100.00;47478.94;4951833;29;20032;-66
2023/04/20 06:39:54;;;;;;;6.57;2.50;;;;;;;-145.18;100.00;47478.94;4951765;29;20089;-66
2023/04/20 06:42:20;;;;;;;4.53;1.80;;;;;;;-145.18;100.00;47437.91;4951465;29;20885;-66
2023/04/20 06:44:46;;;;;;;7.33;2.50;;;;;;;-145.18;100.00;47478.94;4951657;29;20316;-66
2023/04/20 06:47:11;;;;;;;6.47;1.97;;;;;;;-145.18;100.00;47457.44;4951753;29;20035;-66
2023/04/20 06:49:38;;;;;;;7.73;2.80;;;;;;;-145.18;100.00;47465.25;4951440;29;20031;-66
2023/04/20 06:52:06;;;;;;;4.70;2.30;;;;;;;-145.18;100.00;47457.44;4951465;29;20042;-66
2023/04/20 06:54:32;;;;;;;4.83;2.57;;;;;;;-145.18;100.00;47467.22;4951631;29;20281;-66
2023/04/20 06:56:57;;;;;;;5.60;2.30;;;;;;;-145.18;100.00;47453.53;4951706;29;20281;-66
2023/04/20 06:59:22;;;;;;;5.67;2.37;;;;;;;-145.18;100.00;47435.94;4934046;29;20588;-66
2023/04/20 07:01:48;;;;;;;9.73;3.10;;;;;;;-145.18;100.00;47457.44;4955343;29;20039;-66
2023/04/20 07:04:13;;;;;;;9.03;2.20;;;;;;;-145.18;100.00;47445.72;4954518;29;20067;-66
2023/04/20 07:06:38;;;;;;;5.07;3.00;;;;;;;-145.18;100.00;47459.41;4955204;29;20485;-68
2023/04/20 07:09:04;;;;;;;5.43;2.53;;;;;;;-145.18;100.00;47439.84;4954737;29;20037;-67
2023/04/20 07:11:29;;;;;;;3.33;2.17;;;;;;;-145.18;100.00;47432.03;4954994;29;20046;-66
2023/04/20 07:13:55;;;;;;;7.13;2.93;;;;;;;-145.18;100.00;47441.81;4954721;29;20043;-66
2023/04/20 07:16:20;;;;;;;8.17;3.00;;;;;;;-145.18;100.00;47441.81;4954808;29;20047;-67
2023/04/20 07:18:45;;;;;;;7.53;2.73;;;;;;;-145.18;100.00;47437.91;4954762;29;20071;-66
2023/04/20 07:21:11;;;;;;;6.83;2.80;;;;;;;-145.18;100.00;47453.53;4954674;29;20233;-66
2023/04/20 07:23:36;;;;;;;8.73;3.03;;;;;;;-145.18;100.00;47465.25;4954637;28;20070;-66
2023/04/20 07:26:02;;;;;;;4.67;2.90;;;;;;;-145.18;100.00;47461.34;4954813;29;20139;-66
2023/04/20 07:28:27;;;;;;;5.47;2.87;;;;;;;-145.18;100.00;47480.88;4954621;29;20032;-66
2023/04/20 07:30:52;;;;;;;7.57;3.00;;;;;;;-145.18;100.00;47457.44;4954550;29;20107;-66
2023/04/20 07:33:19;;;;;;;6.57;3.20;;;;;;;-145.18;100.00;47459.41;4954321;29;20039;-66
2023/04/20 07:35:44;;;;;;;7.90;3.03;;;;;;;-145.18;100.00;47457.44;4954572;29;20042;-66
2023/04/20 07:38:10;;;;;;;7.53;3.30;;;;;;;-145.18;100.00;47457.44;4954137;29;20261;-66
2023/04/20 07:40:35;;;;;;;9.23;3.00;;;;;;;-145.18;100.00;47467.22;4954471;29;20070;-66
2023/04/20 07:43:01;;;;;;;6.20;2.90;;;;;;;-145.18;100.00;47469.16;4954324;29;20035;-66
2023/04/20 07:45:26;;;;;;;7.07;3.27;;;;;;;-145.18;100.00;47469.16;4937149;29;20074;-66
2023/04/20 07:47:53;;;;;;;8.63;3.43;;;;;;;-145.18;100.00;47434.00;4954264;29;20041;-66
2023/04/20 07:50:18;;;;;;;11.30;2.93;;;;;;;-145.18;100.00;47457.44;4953862;29;20090;-66
2023/04/20 07:52:43;;;;;;;7.47;3.70;;;;;;;-145.18;100.00;47461.34;4936890;29;20309;-66
2023/04/20 07:55:13;;;;;;;7.77;3.10;;;;;;;-145.18;100.00;47471.13;4953818;29;20039;-66
2023/04/20 07:57:38;;;;;;;7.70;3.73;;;;;;;-145.18;100.00;47461.34;4954202;29;20031;-66
2023/04/20 08:00:06;;;;;;;9.37;4.00;;;;;;;-145.18;100.00;47461.34;4953967;29;20340;-66
2023/04/20 08:02:32;;;;;;;7.83;3.40;;;;;;;-145.18;100.00;47482.84;4953803;29;20105;-67
2023/04/20 08:04:57;;;;;;;10.20;3.60;;;;;;;-145.18;100.00;47478.94;4953880;29;20273;-66
2023/04/20 08:07:23;;;;;;;9.27;3.53;;;;;;;-145.18;100.00;47476.97;4953620;29;20268;-66
2023/04/20 08:09:48;;;;;;;8.00;3.60;;;;;;;-145.18;100.00;47473.06;4953937;29;20407;-66
2023/04/20 08:12:14;;;;;;;7.37;3.80;;;;;;;-145.18;100.00;47465.25;4953564;28;20038;-66
2023/04/20 08:14:40;;;;;;;7.27;3.63;;;;;;;-145.18;100.00;47469.16;4953687;29;20346;-66
2023/04/20 08:17:05;;;;;;;8.80;3.83;;;;;;;-145.18;100.00;47467.22;4953593;29;20074;-66
2023/04/20 08:19:31;;;;;;;5.70;3.33;;;;;;;-145.18;100.00;47441.81;4953510;29;20261;-66
2023/04/20 08:21:56;;;;;;;6.60;3.20;;;;;;;-145.18;100.00;47445.72;4953817;29;20400;-66
2023/04/20 08:24:22;;;;;;;7.97;3.23;;;;;;;-145.18;100.00;47457.44;4953281;29;20037;-66
2023/04/20 08:26:47;;;;;;;6.90;2.80;;;;;;;-145.18;100.00;47455.47;4953535;29;20043;-66
2023/04/20 08:29:12;;;;;;;6.63;2.83;;;;;;;-145.18;100.00;47476.97;4952862;29;20035;-66
2023/04/20 08:31:38;;;;;;;6.40;2.60;;;;;;;-145.18;100.00;47492.59;4953655;29;20031;-66
2023/04/20 08:34:03;;;;;;;7.07;3.00;;;;;;;-145.18;100.00;47500.41;4953074;29;20426;-66
2023/04/20 08:36:28;;;;;;;7.27;2.63;;;;;;;-145.18;100.00;47531.69;4953506;29;20555;-66
2023/04/20 08:38:57;;;;;;;6.73;3.23;;;;;;;-145.18;100.00;47518.00;4953102;29;20032;-66
2023/04/20 08:41:24;;;;;;;7.30;3.00;;;;;;;-145.18;100.00;47527.78;4953202;29;20387;-66
2023/04/20 08:43:50;;;;;;;7.57;3.00;;;;;;;-145.18;100.00;47525.81;4953061;29;20274;-66
2023/04/20 08:46:16;;;;;;;6.80;2.97;;;;;;;-145.18;100.00;47516.06;4953327;29;20445;-66
2023/04/20 08:48:45;;;;;;;5.77;3.07;;;;;;;-145.18;100.00;47492.59;4953047;29;20114;-67
2023/04/20 08:51:11;;;;;;;5.27;2.50;;;;;;;-145.18;100.00;47508.22;4953101;29;20277;-66
2023/04/20 08:53:36;;;;;;;6.70;3.13;;;;;;;-145.18;100.00;47512.16;4952554;29;20300;-66
2023/04/20 08:56:02;;;;;;;4.57;2.70;;;;;;;-145.18;100.00;47508.22;4953046;29;20038;-66
2023/04/20 08:58:30;;;;;;;6.50;3.73;;;;;;;-145.18;100.00;47494.56;4953249;29;20031;-66
2023/04/20 09:00:56;;;;;;;5.43;2.70;;;;;;;-145.18;100.00;47498.47;4952758;29;20269;-66
2023/04/20 09:03:36;;;;;;;7.20;2.73;;;;;;;-145.18;100.00;47504.31;4931919;29;20297;-66
2023/04/20 09:06:01;;;;;;;7.17;2.70;;;;;;;-145.18;100.00;47465.25;4933511;29;20040;-66
2023/04/20 09:08:39;;;;;;;8.83;3.23;;;;;;;-145.18;100.00;47455.47;4933512;29;20316;-66
2023/04/20 09:11:05;;;;;;;6.33;2.90;;;;;;;-145.18;100.00;47459.41;4933634;29;20038;-67
2023/04/20 09:13:31;;;;;;;7.87;3.13;;;;;;;-145.18;100.00;47449.63;4933495;29;20294;-67
2023/04/20 09:15:56;;;;;;;5.37;2.67;;;;;;;-145.18;100.00;47443.75;4933416;29;20270;-67
2023/04/20 09:18:23;;;;;;;5.80;2.70;;;;;;;-145.18;100.00;47449.63;4933492;29;20027;-67
2023/04/20 09:20:49;;;;;;;10.57;3.27;;;;;;;-145.18;100.00;47441.81;4933462;29;20036;-67
2023/04/20 09:23:17;;;;;;;6.60;3.07;;;;;;;-145.18;100.00;47435.94;4932929;29;20278;-67
2023/04/20 09:25:45;;;;;;;6.87;3.10;;;;;;;-145.18;100.00;47418.38;4933393;29;20701;-66
2023/04/20 09:28:12;;;;;;;7.33;4.17;;;;;;;-145.18;100.00;47418.38;4933198;29;20274;-66
2023/04/20 09:30:45;;;;;;;10.70;3.60;;;;;;;-145.18;100.00;47410.56;4933208;29;20274;-66
2023/04/20 09:33:13;;;;;;;7.07;3.20;;;;;;;-145.18;100.00;47410.56;4933191;29;20302;-67
2023/04/20 09:35:40;;;;;;;6.80;3.20;;;;;;;-145.18;100.00;47410.56;4933052;29;20307;-67
2023/04/20 09:38:07;;;;;;;8.20;3.20;;;;;;;-145.18;100.00;47391.00;4933161;29;20349;-67
2023/04/20 09:40:34;;;;;;;5.13;3.27;;;;;;;-145.18;100.00;47422.28;4933063;29;20302;-67
2023/04/20 09:43:09;;;;;;;10.63;3.10;;;;;;;-145.18;100.00;47418.38;4933173;29;20277;-67
2023/04/20 09:45:37;;;;;;;6.13;3.40;;;;;;;-145.18;100.00;47402.72;4933111;29;20290;-66
2023/04/20 09:48:06;;;;;;;6.20;3.43;;;;;;;-145.18;100.00;47406.63;4932869;29;20500;-67
2023/04/20 09:50:35;;;;;;;6.13;3.63;;;;;;;-145.18;100.00;47449.63;4933043;29;20313;-67
2023/04/20 09:53:01;;;;;;;9.33;4.30;;;;;;;-145.18;100.00;47447.66;4933152;29;20881;-66
2023/04/20 09:55:30;;;;;;;8.33;3.93;;;;;;;-145.18;100.00;47465.25;4932748;29;20325;-67
2023/04/20 09:57:55;;;;;;;5.77;3.63;;;;;;;-145.18;100.00;47473.06;4931958;29;20365;-66
2023/04/20 10:00:21;;;;;;;6.47;3.77;;;;;;;-145.18;100.00;47473.06;4932662;29;20401;-66
2023/04/20 10:02:47;;;;;;;7.57;3.63;;;;;;;-145.18;100.00;47504.31;4934316;29;20035;-66
2023/04/20 10:05:13;;;;;;;10.90;3.50;;;;;;;-145.18;100.00;47504.31;4951751;29;20106;-66
2023/04/20 10:07:38;;;;;;;8.03;4.17;;;;;;;-145.18;100.00;47529.72;4935075;29;20070;-66
2023/04/20 10:10:12;;;;;;;7.33;4.10;;;;;;;-145.18;100.00;47527.78;4951668;29;20389;-66
2023/04/20 10:12:52;;;;;;;9.10;4.70;;;;;;;-145.18;100.00;47545.34;4952226;29;20046;-66
2023/04/20 10:15:20;;;;;;;7.40;4.00;;;;;;;-145.18;100.00;47533.63;4951635;29;20359;-66
2023/04/20 10:17:46;;;;;;;7.67;4.20;;;;;;;-145.18;100.00;47537.53;4952155;29;20348;-66
2023/04/20 10:20:26;;;;;;;10.23;4.93;;;;;;;-145.18;100.00;47539.50;4951603;29;21183;-66
2023/04/20 10:23:05;;;;;;;8.00;4.57;;;;;;;-145.18;100.00;47559.03;4952182;29;20038;-66
2023/04/20 10:25:30;;;;;;;8.90;4.33;;;;;;;-145.18;100.00;47564.91;4951721;29;20743;-66
2023/04/20 10:27:58;;;;;;;8.27;4.57;;;;;;;-145.18;100.00;47527.78;4951793;29;20257;-66
2023/04/20 10:30:25;;;;;;;5.70;4.13;;;;;;;-145.18;100.00;47547.31;4951637;29;20035;-66
2023/04/20 10:33:08;;;;;;;9.73;4.57;;;;;;;-145.18;100.00;47535.59;4951717;29;20761;-66
2023/04/20 10:35:53;;;;;;;7.47;4.50;;;;;;;-145.18;100.00;47512.16;4953790;28;20273;-66
2023/04/20 10:38:33;;;;;;;7.40;4.50;;;;;;;-145.18;100.00;47484.78;4955566;29;20800;-66
2023/04/20 10:41:12;;;;;;;8.83;4.93;;;;;;;-145.18;100.00;47512.16;4955336;29;20269;-66
2023/04/20 10:43:40;;;;;;;8.10;4.87;;;;;;;-145.18;100.00;47551.22;4955208;29;20826;-66
2023/04/20 10:46:15;;;;;;;10.20;4.30;;;;;;;-145.18;100.00;47543.41;4955399;29;20281;-66
2023/04/20 10:49:00;;;;;;;9.27;4.27;;;;;;;-145.18;100.00;47549.25;4955384;29;20282;-66
2023/04/20 10:51:25;;;;;;;10.63;4.77;;;;;;;-145.18;100.00;47549.25;4955010;29;20587;-66
2023/04/20 10:53:58;;;;;;;8.07;4.43;;;;;;;-145.18;100.00;47547.31;4937589;29;20348;-66
2023/04/20 10:56:25;;;;;;;19.43;4.87;;;;;;;-145.18;100.00;47529.72;4955190;29;20158;-67
2023/04/20 10:58:50;;;;;;;8.20;4.90;;;;;;;-145.18;100.00;47539.50;4955065;29;20642;-66
2023/04/20 11:01:16;;;;;;;7.07;4.63;;;;;;;-145.18;100.00;47551.22;4954945;29;20272;-66
2023/04/20 11:03:41;;;;;;;8.93;4.53;;;;;;;-145.18;100.00;47523.88;4954573;29;20424;-66
2023/04/20 11:06:06;;;;;;;7.37;4.90;;;;;;;-145.18;100.00;47504.31;4954863;29;20118;-66
2023/04/20 11:08:39;;;;;;;8.93;4.60;;;;;;;-145.18;100.00;47457.44;4955181;29;20038;-66